KSBN

South Bend International Airport

South Bend, Indiana, USA
METAR KSBN 131054Z 21004KT 6SM BR CLR M04/M06 A3007 RMK AO2 SLP190 T10441061
Observed Flight Rules
Dec-13 @ 10:54 UTC (an hour ago) Visual Flight Rules
Wind Visibility Clouds Conditions
210° at 4 knots 6 miles
  • Clear skies
  • Mist
Temperatures Readings
Current -4°C / 25°F
Dewpoint -6°C / 21°F
Humidity 86%
Altimeter 30.07" Hg
Pressure 1019 hPa
Elevation 237
METAR KSBN 131054Z 21004KT 6SM BR CLR M04/M06 A3007 RMK AO2 SLP190 T10441061
Observed Flight Rules
Dec-13 @ 10:54 UTC
(an hour ago)
VFR
Wind Visibility
210° at 4 knots 6 miles
Clouds
  • Clear skies
Conditions
  • Mist
Temperature Dewpoint
-4°C / 25°F -6°C / 21°F
Humidity Altimeter Pressure
86% 30.07" Hg 1019 hPa